sensor_id;sensor_type;location;lat;lon;timestamp;pressure;altitude;pressure_sealevel;temperature;humidity
65800;BME280;52544;48.116;11.660;2023-05-10T00:00:52;95036.84;;;13.95;100.00
65800;BME280;52544;48.116;11.660;2023-05-10T00:03:18;95034.81;;;13.89;100.00
65800;BME280;52544;48.116;11.660;2023-05-10T00:05:43;95041.66;;;13.99;100.00
65800;BME280;52544;48.116;11.660;2023-05-10T00:08:09;95037.16;;;13.92;100.00
65800;BME280;52544;48.116;11.660;2023-05-10T00:10:34;95035.50;;;13.99;100.00
65800;BME280;52544;48.116;11.660;2023-05-10T00:13:00;95035.31;;;13.92;100.00
65800;BME280;52544;48.116;11.660;2023-05-10T00:15:25;95037.97;;;13.84;100.00
65800;BME280;52544;48.116;11.660;2023-05-10T00:17:51;95037.34;;;13.90;100.00
65800;BME280;52544;48.116;11.660;2023-05-10T00:20:16;95037.66;;;13.87;100.00
65800;BME280;52544;48.116;11.660;2023-05-10T00:22:42;95035.31;;;13.84;100.00
65800;BME280;52544;48.116;11.660;2023-05-10T00:25:08;95031.19;;;13.82;100.00
65800;BME280;52544;48.116;11.660;2023-05-10T00:27:33;95028.34;;;13.83;100.00
65800;BME280;52544;48.116;11.660;2023-05-10T00:29:58;95030.50;;;13.96;100.00
65800;BME280;52544;48.116;11.660;2023-05-10T00:32:24;95029.50;;;13.89;100.00
65800;BME280;52544;48.116;11.660;2023-05-10T00:34:49;95025.84;;;13.82;100.00
65800;BME280;52544;48.116;11.660;2023-05-10T00:37:15;95023.50;;;13.79;100.00
65800;BME280;52544;48.116;11.660;2023-05-10T00:39:40;95022.69;;;13.78;100.00
65800;BME280;52544;48.116;11.660;2023-05-10T00:42:06;95029.00;;;13.77;100.00
65800;BME280;52544;48.116;11.660;2023-05-10T00:44:31;95018.50;;;13.75;100.00
65800;BME280;52544;48.116;11.660;2023-05-10T00:46:57;95022.50;;;13.80;100.00
65800;BME280;52544;48.116;11.660;2023-05-10T00:49:23;95016.03;;;13.82;100.00
65800;BME280;52544;48.116;11.660;2023-05-10T00:51:48;95018.72;;;13.82;100.00
65800;BME280;52544;48.116;11.660;2023-05-10T00:54:14;95012.06;;;13.78;100.00
65800;BME280;52544;48.116;11.660;2023-05-10T00:56:40;95018.88;;;13.81;100.00
65800;BME280;52544;48.116;11.660;2023-05-10T00:59:08;95010.41;;;13.77;100.00
65800;BME280;52544;48.116;11.660;2023-05-10T01:01:34;95019.53;;;13.74;100.00
65800;BME280;52544;48.116;11.660;2023-05-10T01:04:01;95019.19;;;13.69;100.00
65800;BME280;52544;48.116;11.660;2023-05-10T01:06:28;95018.19;;;13.79;100.00
65800;BME280;52544;48.116;11.660;2023-05-10T01:08:54;95021.19;;;13.84;100.00
65800;BME280;52544;48.116;11.660;2023-05-10T01:11:19;95024.19;;;13.81;100.00
65800;BME280;52544;48.116;11.660;2023-05-10T01:13:49;95014.88;;;13.85;100.00
65800;BME280;52544;48.116;11.660;2023-05-10T01:16:16;95016.69;;;13.84;100.00
65800;BME280;52544;48.116;11.660;2023-05-10T01:18:42;95026.38;;;13.93;100.00
65800;BME280;52544;48.116;11.660;2023-05-10T01:23:45;95012.88;;;13.79;100.00
65800;BME280;52544;48.116;11.660;2023-05-10T01:30:02;95014.53;;;13.71;100.00
65800;BME280;52544;48.116;11.660;2023-05-10T01:35:16;95019.34;;;13.60;100.00
65800;BME280;52544;48.116;11.660;2023-05-10T01:37:48;95020.00;;;13.62;100.00
65800;BME280;52544;48.116;11.660;2023-05-10T01:40:23;95019.38;;;13.68;100.00
65800;BME280;52544;48.116;11.660;2023-05-10T01:42:54;95016.97;;;13.48;100.00
65800;BME280;52544;48.116;11.660;2023-05-10T01:45:30;95016.50;;;13.61;100.00
65800;BME280;52544;48.116;11.660;2023-05-10T01:48:10;95015.81;;;13.59;100.00
65800;BME280;52544;48.116;11.660;2023-05-10T01:50:43;95014.84;;;13.60;100.00
65800;BME280;52544;48.116;11.660;2023-05-10T01:53:10;95018.16;;;13.62;100.00
65800;BME280;52544;48.116;11.660;2023-05-10T01:55:46;95014.16;;;13.50;100.00
65800;BME280;52544;48.116;11.660;2023-05-10T01:58:23;95023.94;;;13.49;100.00
65800;BME280;52544;48.116;11.660;2023-05-10T02:00:51;95027.44;;;13.50;100.00
65800;BME280;52544;48.116;11.660;2023-05-10T02:03:18;95018.13;;;13.46;100.00
65800;BME280;52544;48.116;11.660;2023-05-10T02:05:48;95023.13;;;13.49;100.00
65800;BME280;52544;48.116;11.660;2023-05-10T02:08:15;95008.69;;;13.52;100.00
65800;BME280;52544;48.116;11.660;2023-05-10T02:10:41;95015.63;;;13.44;100.00
65800;BME280;52544;48.116;11.660;2023-05-10T02:13:09;95019.97;;;13.45;100.00
65800;BME280;52544;48.116;11.660;2023-05-10T02:15:36;95015.97;;;13.41;100.00
65800;BME280;52544;48.116;11.660;2023-05-10T02:18:02;95011.31;;;13.43;100.00
65800;BME280;52544;48.116;11.660;2023-05-10T02:20:31;95015.97;;;13.41;100.00
65800;BME280;52544;48.116;11.660;2023-05-10T02:22:57;95015.31;;;13.39;100.00
65800;BME280;52544;48.116;11.660;2023-05-10T02:25:24;95009.16;;;13.39;100.00
65800;BME280;52544;48.116;11.660;2023-05-10T02:27:53;95013.97;;;13.43;100.00
65800;BME280;52544;48.116;11.660;2023-05-10T02:30:20;95017.44;;;13.36;100.00
65800;BME280;52544;48.116;11.660;2023-05-10T02:32:46;95015.13;;;13.41;100.00
65800;BME280;52544;48.116;11.660;2023-05-10T02:35:14;95025.09;;;13.39;100.00
65800;BME280;52544;48.116;11.660;2023-05-10T02:37:41;95013.78;;;13.37;100.00
65800;BME280;52544;48.116;11.660;2023-05-10T02:40:07;95018.47;;;13.43;100.00
65800;BME280;52544;48.116;11.660;2023-05-10T02:42:36;95017.66;;;13.42;100.00
65800;BME280;52544;48.116;11.660;2023-05-10T02:45:07;95011.09;;;13.29;100.00
65800;BME280;52544;48.116;11.660;2023-05-10T02:47:32;95011.78;;;13.31;100.00
65800;BME280;52544;48.116;11.660;2023-05-10T02:49:58;95019.41;;;13.34;100.00
65800;BME280;52544;48.116;11.660;2023-05-10T02:52:29;95012.44;;;13.33;100.00
65800;BME280;52544;48.116;11.660;2023-05-10T02:54:59;95017.75;;;13.33;100.00
65800;BME280;52544;48.116;11.660;2023-05-10T02:57:28;95016.09;;;13.32;100.00
65800;BME280;52544;48.116;11.660;2023-05-10T02:59:55;95014.75;;;13.28;100.00
65800;BME280;52544;48.116;11.660;2023-05-10T03:02:21;95011.44;;;13.25;100.00
65800;BME280;52544;48.116;11.660;2023-05-10T03:04:46;95016.09;;;13.32;100.00
65800;BME280;52544;48.116;11.660;2023-05-10T03:07:12;95024.38;;;13.29;100.00
65800;BME280;52544;48.116;11.660;2023-05-10T03:09:38;95022.25;;;13.32;100.00
65800;BME280;52544;48.116;11.660;2023-05-10T03:14:42;95024.59;;;13.35;100.00
65800;BME280;52544;48.116;11.660;2023-05-10T03:17:35;95028.88;;;13.28;100.00
65800;BME280;52544;48.116;11.660;2023-05-10T03:20:08;95033.34;;;13.28;100.00
65800;BME280;52544;48.116;11.660;2023-05-10T03:22:47;95031.69;;;13.27;100.00
65800;BME280;52544;48.116;11.660;2023-05-10T03:25:15;95036.31;;;13.24;100.00
65800;BME280;52544;48.116;11.660;2023-05-10T03:27:43;95041.50;;;13.26;100.00
65800;BME280;52544;48.116;11.660;2023-05-10T03:30:11;95040.44;;;13.19;100.00
65800;BME280;52544;48.116;11.660;2023-05-10T03:32:37;95039.97;;;13.23;100.00
65800;BME280;52544;48.116;11.660;2023-05-10T03:35:09;95044.28;;;13.24;100.00
65800;BME280;52544;48.116;11.660;2023-05-10T03:37:35;95040.88;;;13.40;100.00
65800;BME280;52544;48.116;11.660;2023-05-10T03:40:01;95042.72;;;13.40;100.00
65800;BME280;52544;48.116;11.660;2023-05-10T03:42:27;95048.09;;;13.22;100.00
65800;BME280;52544;48.116;11.660;2023-05-10T03:44:52;95046.97;;;13.24;100.00
65800;BME280;52544;48.116;11.660;2023-05-10T03:47:17;95049.25;;;13.19;100.00
65800;BME280;52544;48.116;11.660;2023-05-10T03:49:43;95050.19;;;13.10;100.00
65800;BME280;52544;48.116;11.660;2023-05-10T03:52:08;95055.19;;;13.13;100.00
65800;BME280;52544;48.116;11.660;2023-05-10T03:54:33;95052.84;;;13.10;100.00
65800;BME280;52544;48.116;11.660;2023-05-10T03:56:59;95049.78;;;13.23;100.00
65800;BME280;52544;48.116;11.660;2023-05-10T03:59:26;95044.88;;;13.10;100.00
65800;BME280;52544;48.116;11.660;2023-05-10T04:01:51;95059.16;;;13.09;100.00
65800;BME280;52544;48.116;11.660;2023-05-10T04:04:16;95056.94;;;13.22;100.00
65800;BME280;52544;48.116;11.660;2023-05-10T04:06:43;95059.22;;;13.17;100.00
65800;BME280;52544;48.116;11.660;2023-05-10T04:09:09;95061.88;;;13.17;100.00
65800;BME280;52544;48.116;11.660;2023-05-10T04:11:34;95052.81;;;13.02;100.00
65800;BME280;52544;48.116;11.660;2023-05-10T04:14:00;95057.81;;;13.05;100.00
65800;BME280;52544;48.116;11.660;2023-05-10T04:16:25;95053.66;;;13.02;100.00
65800;BME280;52544;48.116;11.660;2023-05-10T04:18:50;95061.81;;;13.09;100.00
65800;BME280;52544;48.116;11.660;2023-05-10T04:21:16;95064.34;;;13.19;100.00
65800;BME280;52544;48.116;11.660;2023-05-10T04:23:41;95060.81;;;13.10;100.00
65800;BME280;52544;48.116;11.660;2023-05-10T04:26:07;95062.78;;;13.08;100.00
65800;BME280;52544;48.116;11.660;2023-05-10T04:28:32;95067.19;;;13.17;100.00
65800;BME280;52544;48.116;11.660;2023-05-10T04:31:05;95072.50;;;13.17;100.00
65800;BME280;52544;48.116;11.660;2023-05-10T04:33:31;95069.13;;;13.15;100.00
65800;BME280;52544;48.116;11.660;2023-05-10T04:35:57;95062.66;;;13.10;100.00
65800;BME280;52544;48.116;11.660;2023-05-10T04:38:22;95073.69;;;13.23;100.00
65800;BME280;52544;48.116;11.660;2023-05-10T04:40:47;95071.66;;;13.17;100.00
65800;BME280;52544;48.116;11.660;2023-05-10T04:43:13;95069.22;;;13.23;100.00
65800;BME280;52544;48.116;11.660;2023-05-10T04:45:38;95064.66;;;13.16;100.00
65800;BME280;52544;48.116;11.660;2023-05-10T04:48:04;95069.84;;;13.17;100.00
65800;BME280;52544;48.116;11.660;2023-05-10T04:50:29;95068.06;;;13.26;100.00
65800;BME280;52544;48.116;11.660;2023-05-10T04:52:55;95073.22;;;13.28;100.00
65800;BME280;52544;48.116;11.660;2023-05-10T04:55:21;95072.50;;;13.17;100.00
65800;BME280;52544;48.116;11.660;2023-05-10T04:57:46;95077.31;;;13.22;100.00
65800;BME280;52544;48.116;11.660;2023-05-10T05:00:12;95076.28;;;13.15;100.00
65800;BME280;52544;48.116;11.660;2023-05-10T05:02:37;95074.75;;;13.12;100.00
65800;BME280;52544;48.116;11.660;2023-05-10T05:05:03;95079.53;;;13.00;100.00
65800;BME280;52544;48.116;11.660;2023-05-10T05:07:28;95089.72;;;12.79;100.00
65800;BME280;52544;48.116;11.660;2023-05-10T05:09:55;95080.53;;;12.73;100.00
65800;BME280;52544;48.116;11.660;2023-05-10T05:12:21;95094.59;;;12.66;100.00
65800;BME280;52544;48.116;11.660;2023-05-10T05:14:46;95091.03;;;12.57;100.00
65800;BME280;52544;48.116;11.660;2023-05-10T05:17:11;95081.47;;;12.64;100.00
65800;BME280;52544;48.116;11.660;2023-05-10T05:19:37;95096.25;;;12.67;100.00
65800;BME280;52544;48.116;11.660;2023-05-10T05:22:02;95097.81;;;12.51;100.00
65800;BME280;52544;48.116;11.660;2023-05-10T05:24:28;95104.66;;;12.36;100.00
65800;BME280;52544;48.116;11.660;2023-05-10T05:26:53;95110.25;;;12.51;100.00
65800;BME280;52544;48.116;11.660;2023-05-10T05:29:18;95109.81;;;12.38;100.00
65800;BME280;52544;48.116;11.660;2023-05-10T05:31:44;95111.94;;;12.34;100.00
65800;BME280;52544;48.116;11.660;2023-05-10T05:34:09;95116.72;;;12.31;100.00
65800;BME280;52544;48.116;11.660;2023-05-10T05:36:38;95120.13;;;12.23;100.00
65800;BME280;52544;48.116;11.660;2023-05-10T05:39:03;95119.28;;;12.22;100.00
65800;BME280;52544;48.116;11.660;2023-05-10T05:41:29;95126.56;;;12.20;100.00
65800;BME280;52544;48.116;11.660;2023-05-10T05:43:54;95130.22;;;12.19;100.00
65800;BME280;52544;48.116;11.660;2023-05-10T05:46:20;95143.63;;;12.18;100.00
65800;BME280;52544;48.116;11.660;2023-05-10T05:48:45;95142.25;;;12.32;100.00
65800;BME280;52544;48.116;11.660;2023-05-10T05:51:10;95145.59;;;12.16;100.00
65800;BME280;52544;48.116;11.660;2023-05-10T05:53:36;95140.66;;;12.03;100.00
65800;BME280;52544;48.116;11.660;2023-05-10T05:56:02;95147.03;;;12.10;100.00
65800;BME280;52544;48.116;11.660;2023-05-10T05:58:27;95144.53;;;11.91;100.00
65800;BME280;52544;48.116;11.660;2023-05-10T06:00:53;95151.09;;;11.87;100.00
65800;BME280;52544;48.116;11.660;2023-05-10T06:03:19;95147.75;;;11.85;100.00
65800;BME280;52544;48.116;11.660;2023-05-10T06:05:44;95155.50;;;11.96;100.00
65800;BME280;52544;48.116;11.660;2023-05-10T06:08:10;95149.28;;;12.05;100.00
65800;BME280;52544;48.116;11.660;2023-05-10T06:10:36;95153.31;;;12.09;100.00
65800;BME280;52544;48.116;11.660;2023-05-10T06:13:01;95157.34;;;12.13;100.00
65800;BME280;52544;48.116;11.660;2023-05-10T06:15:27;95164.31;;;12.14;100.00
65800;BME280;52544;48.116;11.660;2023-05-10T06:17:53;95164.31;;;12.14;100.00
65800;BME280;52544;48.116;11.660;2023-05-10T06:20:18;95172.75;;;12.28;100.00
65800;BME280;52544;48.116;11.660;2023-05-10T06:22:44;95166.50;;;12.19;100.00
65800;BME280;52544;48.116;11.660;2023-05-10T06:25:09;95182.13;;;12.22;100.00
65800;BME280;52544;48.116;11.660;2023-05-10T06:27:35;95186.00;;;12.28;100.00
65800;BME280;52544;48.116;11.660;2023-05-10T06:30:01;95178.09;;;12.36;100.00
65800;BME280;52544;48.116;11.660;2023-05-10T06:32:27;95186.94;;;12.36;100.00
65800;BME280;52544;48.116;11.660;2023-05-10T06:34:53;95178.34;;;12.42;100.00
65800;BME280;52544;48.116;11.660;2023-05-10T06:37:18;95194.44;;;12.41;100.00
65800;BME280;52544;48.116;11.660;2023-05-10T06:39:44;95189.63;;;12.44;100.00
65800;BME280;52544;48.116;11.660;2023-05-10T06:42:09;95190.84;;;12.50;100.00
65800;BME280;52544;48.116;11.660;2023-05-10T06:44:35;95181.59;;;12.54;100.00
65800;BME280;52544;48.116;11.660;2023-05-10T06:47:00;95186.00;;;12.63;100.00
65800;BME280;52544;48.116;11.660;2023-05-10T06:49:25;95197.44;;;12.64;100.00
65800;BME280;52544;48.116;11.660;2023-05-10T06:51:51;95198.72;;;12.60;100.00
65800;BME280;52544;48.116;11.660;2023-05-10T06:54:17;95202.22;;;12.60;100.00
65800;BME280;52544;48.116;11.660;2023-05-10T06:56:42;95192.97;;;12.64;100.00
65800;BME280;52544;48.116;11.660;2023-05-10T06:59:08;95196.59;;;12.63;100.00
65800;BME280;52544;48.116;11.660;2023-05-10T07:01:33;95192.09;;;12.82;100.00
65800;BME280;52544;48.116;11.660;2023-05-10T07:03:59;95201.06;;;12.81;100.00
65800;BME280;52544;48.116;11.660;2023-05-10T07:06:24;95198.09;;;12.84;100.00
65800;BME280;52544;48.116;11.660;2023-05-10T07:08:50;95193.72;;;12.74;100.00
65800;BME280;52544;48.116;11.660;2023-05-10T07:11:15;95201.69;;;12.74;100.00
65800;BME280;52544;48.116;11.660;2023-05-10T07:13:41;95203.16;;;12.95;100.00
65800;BME280;52544;48.116;11.660;2023-05-10T07:16:09;95193.94;;;13.07;100.00
65800;BME280;52544;48.116;11.660;2023-05-10T07:18:35;95199.13;;;13.09;100.00
65800;BME280;52544;48.116;11.660;2023-05-10T07:21:01;95200.97;;;12.90;100.00
65800;BME280;52544;48.116;11.660;2023-05-10T07:23:27;95206.22;;;12.82;100.00
65800;BME280;52544;48.116;11.660;2023-05-10T07:25:53;95213.69;;;12.79;100.00
65800;BME280;52544;48.116;11.660;2023-05-10T07:28:19;95201.53;;;12.76;100.00
65800;BME280;52544;48.116;11.660;2023-05-10T07:30:44;95206.66;;;12.77;100.00
65800;BME280;52544;48.116;11.660;2023-05-10T07:33:11;95211.59;;;12.90;100.00
65800;BME280;52544;48.116;11.660;2023-05-10T07:35:37;95213.84;;;13.03;100.00
65800;BME280;52544;48.116;11.660;2023-05-10T07:38:02;95203.78;;;13.33;100.00
65800;BME280;52544;48.116;11.660;2023-05-10T07:40:28;95199.50;;;13.40;100.00
65800;BME280;52544;48.116;11.660;2023-05-10T07:42:54;95201.91;;;13.59;100.00
65800;BME280;52544;48.116;11.660;2023-05-10T07:45:20;95208.75;;;13.62;100.00
65800;BME280;52544;48.116;11.660;2023-05-10T07:47:45;95205.66;;;13.74;100.00
65800;BME280;52544;48.116;11.660;2023-05-10T07:50:10;95209.44;;;13.64;100.00
65800;BME280;52544;48.116;11.660;2023-05-10T07:52:36;95209.16;;;13.75;100.00
65800;BME280;52544;48.116;11.660;2023-05-10T07:55:01;95203.53;;;13.78;100.00
65800;BME280;52544;48.116;11.660;2023-05-10T07:57:27;95222.75;;;13.64;100.00
65800;BME280;52544;48.116;11.660;2023-05-10T07:59:52;95216.94;;;13.68;100.00
65800;BME280;52544;48.116;11.660;2023-05-10T08:02:18;95207.75;;;13.97;100.00
65800;BME280;52544;48.116;11.660;2023-05-10T08:04:43;95215.25;;;14.10;100.00
65800;BME280;52544;48.116;11.660;2023-05-10T08:07:08;95208.53;;;14.40;100.00
65800;BME280;52544;48.116;11.660;2023-05-10T08:09:34;95211.94;;;14.58;100.00
65800;BME280;52544;48.116;11.660;2023-05-10T08:12:00;95211.44;;;14.71;100.00
65800;BME280;52544;48.116;11.660;2023-05-10T08:14:26;95211.09;;;14.58;100.00
65800;BME280;52544;48.116;11.660;2023-05-10T08:16:52;95211.25;;;14.64;100.00
65800;BME280;52544;48.116;11.660;2023-05-10T08:19:17;95221.63;;;14.92;100.00
65800;BME280;52544;48.116;11.660;2023-05-10T08:21:45;95212.44;;;14.94;100.00
65800;BME280;52544;48.116;11.660;2023-05-10T08:24:10;95213.44;;;15.26;100.00
65800;BME280;52544;48.116;11.660;2023-05-10T08:26:36;95223.28;;;15.09;100.00
65800;BME280;52544;48.116;11.660;2023-05-10T08:29:01;95218.94;;;15.00;100.00
65800;BME280;52544;48.116;11.660;2023-05-10T08:31:27;95223.59;;;15.14;100.00
65800;BME280;52544;48.116;11.660;2023-05-10T08:33:52;95213.56;;;15.24;100.00
65800;BME280;52544;48.116;11.660;2023-05-10T08:36:18;95220.75;;;15.16;100.00
65800;BME280;52544;48.116;11.660;2023-05-10T08:38:49;95222.94;;;15.04;100.00
65800;BME280;52544;48.116;11.660;2023-05-10T08:41:14;95222.25;;;15.18;100.00
65800;BME280;52544;48.116;11.660;2023-05-10T08:43:40;95225.44;;;15.06;100.00
65800;BME280;52544;48.116;11.660;2023-05-10T08:46:15;95225.75;;;14.78;100.00
65800;BME280;52544;48.116;11.660;2023-05-10T08:48:42;95223.22;;;14.52;100.00
65800;BME280;52544;48.116;11.660;2023-05-10T08:51:09;95228.16;;;14.39;100.00
65800;BME280;52544;48.116;11.660;2023-05-10T08:53:38;95228.31;;;14.29;100.00
65800;BME280;52544;48.116;11.660;2023-05-10T08:56:04;95231.47;;;14.24;100.00
65800;BME280;52544;48.116;11.660;2023-05-10T08:58:30;95229.44;;;14.26;100.00
65800;BME280;52544;48.116;11.660;2023-05-10T09:00:57;95233.13;;;14.25;100.00
65800;BME280;52544;48.116;11.660;2023-05-10T09:03:23;95228.47;;;14.28;100.00
65800;BME280;52544;48.116;11.660;2023-05-10T09:05:48;95236.78;;;14.24;100.00
65800;BME280;52544;48.116;11.660;2023-05-10T09:08:15;95229.78;;;14.23;100.00
65800;BME280;52544;48.116;11.660;2023-05-10T09:10:44;95238.75;;;14.22;100.00
65800;BME280;52544;48.116;11.660;2023-05-10T09:13:13;95232.13;;;14.35;100.00
65800;BME280;52544;48.116;11.660;2023-05-10T09:15:39;95233.13;;;14.34;100.00
65800;BME280;52544;48.116;11.660;2023-05-10T09:18:05;95232.81;;;14.29;100.00
65800;BME280;52544;48.116;11.660;2023-05-10T09:20:30;95235.59;;;14.27;100.00
65800;BME280;52544;48.116;11.660;2023-05-10T09:22:56;95233.63;;;14.29;100.00
65800;BME280;52544;48.116;11.660;2023-05-10T09:25:21;95231.47;;;14.33;100.00
65800;BME280;52544;48.116;11.660;2023-05-10T09:27:48;95239.16;;;14.44;100.00
65800;BME280;52544;48.116;11.660;2023-05-10T09:30:26;95238.25;;;14.86;100.00
65800;BME280;52544;48.116;11.660;2023-05-10T09:32:52;95222.25;;;15.27;100.00
65800;BME280;52544;48.116;11.660;2023-05-10T09:35:22;95220.53;;;15.50;100.00
65800;BME280;52544;48.116;11.660;2023-05-10T09:37:51;95229.84;;;15.70;100.00
65800;BME280;52544;48.116;11.660;2023-05-10T09:40:27;95218.66;;;15.75;100.00
65800;BME280;52544;48.116;11.660;2023-05-10T09:42:53;95222.22;;;15.59;100.00
65800;BME280;52544;48.116;11.660;2023-05-10T09:45:20;95221.69;;;15.64;100.00
65800;BME280;52544;48.116;11.660;2023-05-10T09:47:46;95222.41;;;15.33;100.00
65800;BME280;52544;48.116;11.660;2023-05-10T09:50:11;95229.25;;;15.19;100.00
65800;BME280;52544;48.116;11.660;2023-05-10T09:52:57;95226.59;;;15.19;100.00
65800;BME280;52544;48.116;11.660;2023-05-10T09:58:03;95226.25;;;15.22;100.00
65800;BME280;52544;48.116;11.660;2023-05-10T10:00:35;95214.34;;;15.58;100.00
65800;BME280;52544;48.116;11.660;2023-05-10T10:03:01;95215.19;;;15.74;100.00
65800;BME280;52544;48.116;11.660;2023-05-10T10:05:35;95214.22;;;16.07;100.00
65800;BME280;52544;48.116;11.660;2023-05-10T10:08:03;95209.00;;;16.13;100.00
65800;BME280;52544;48.116;11.660;2023-05-10T10:10:31;95210.00;;;16.20;100.00
65800;BME280;52544;48.116;11.660;2023-05-10T10:12:57;95207.13;;;16.22;100.00
65800;BME280;52544;48.116;11.660;2023-05-10T10:15:23;95206.31;;;16.21;100.00
65800;BME280;52544;48.116;11.660;2023-05-10T10:17:50;95207.16;;;16.14;100.00
65800;BME280;52544;48.116;11.660;2023-05-10T10:20:18;95205.81;;;16.18;100.00
65800;BME280;52544;48.116;11.660;2023-05-10T10:22:44;95204.06;;;16.02;100.00
65800;BME280;52544;48.116;11.660;2023-05-10T10:25:11;95212.13;;;15.94;100.00
65800;BME280;52544;48.116;11.660;2023-05-10T10:30:34;95216.16;;;15.82;100.00
65800;BME280;52544;48.116;11.660;2023-05-10T10:36:04;95206.47;;;15.89;100.00
65800;BME280;52544;48.116;11.660;2023-05-10T10:38:37;95209.63;;;15.84;100.00
65800;BME280;52544;48.116;11.660;2023-05-10T10:41:10;95205.63;;;15.88;100.00
65800;BME280;52544;48.116;11.660;2023-05-10T10:43:37;95206.16;;;15.75;100.00
65800;BME280;52544;48.116;11.660;2023-05-10T10:46:12;95203.84;;;15.81;100.00
65800;BME280;52544;48.116;11.660;2023-05-10T10:48:48;95202.50;;;15.77;100.00
65800;BME280;52544;48.116;11.660;2023-05-10T10:51:14;95194.53;;;15.68;100.00
65800;BME280;52544;48.116;11.660;2023-05-10T10:53:40;95195.50;;;15.75;100.00
65800;BME280;52544;48.116;11.660;2023-05-10T10:56:13;95191.25;;;15.97;100.00
65800;BME280;52544;48.116;11.660;2023-05-10T10:58:40;95184.78;;;16.23;100.00
65800;BME280;52544;48.116;11.660;2023-05-10T11:01:17;95195.53;;;16.38;100.00
65800;BME280;52544;48.116;11.660;2023-05-10T11:06:36;95184.41;;;16.26;100.00
65800;BME280;52544;48.116;11.660;2023-05-10T11:09:08;95193.66;;;16.15;100.00
65800;BME280;52544;48.116;11.660;2023-05-10T11:11:35;95200.09;;;15.98;100.00
65800;BME280;52544;48.116;11.660;2023-05-10T11:14:05;95189.94;;;15.93;100.00
65800;BME280;52544;48.116;11.660;2023-05-10T11:16:44;95187.13;;;15.87;100.00
65800;BME280;52544;48.116;11.660;2023-05-10T11:19:11;95197.84;;;15.70;100.00
65800;BME280;52544;48.116;11.660;2023-05-10T11:21:48;95201.34;;;15.55;100.00
65800;BME280;52544;48.116;11.660;2023-05-10T11:24:15;95213.06;;;15.37;100.00
65800;BME280;52544;48.116;11.660;2023-05-10T11:26:42;95209.56;;;15.29;100.00
65800;BME280;52544;48.116;11.660;2023-05-10T11:29:08;95212.09;;;15.14;100.00
65800;BME280;52544;48.116;11.660;2023-05-10T11:31:33;95211.28;;;15.05;100.00
65800;BME280;52544;48.116;11.660;2023-05-10T11:34:00;95206.97;;;14.88;100.00
65800;BME280;52544;48.116;11.660;2023-05-10T11:36:32;95202.63;;;14.79;100.00
65800;BME280;52544;48.116;11.660;2023-05-10T11:38:57;95212.44;;;15.03;100.00
65800;BME280;52544;48.116;11.660;2023-05-10T11:41:24;95214.44;;;14.92;100.00
65800;BME280;52544;48.116;11.660;2023-05-10T11:43:51;95209.91;;;14.52;100.00
65800;BME280;52544;48.116;11.660;2023-05-10T11:46:21;95217.91;;;14.68;100.00
65800;BME280;52544;48.116;11.660;2023-05-10T11:48:51;95225.88;;;14.52;100.00
65800;BME280;52544;48.116;11.660;2023-05-10T11:51:21;95223.03;;;14.45;100.00
65800;BME280;52544;48.116;11.660;2023-05-10T11:53:47;95231.16;;;14.44;100.00
65800;BME280;52544;48.116;11.660;2023-05-10T11:56:12;95225.66;;;13.87;100.00
65800;BME280;52544;48.116;11.660;2023-05-10T11:58:38;95239.31;;;13.58;100.00
65800;BME280;52544;48.116;11.660;2023-05-10T12:01:05;95242.91;;;13.22;100.00
65800;BME280;52544;48.116;11.660;2023-05-10T12:03:31;95246.47;;;12.95;100.00
65800;BME280;52544;48.116;11.660;2023-05-10T12:05:58;95255.91;;;12.90;100.00
65800;BME280;52544;48.116;11.660;2023-05-10T12:08:25;95266.53;;;12.90;100.00
65800;BME280;52544;48.116;11.660;2023-05-10T12:10:54;95277.78;;;12.84;100.00
65800;BME280;52544;48.116;11.660;2023-05-10T12:13:29;95292.88;;;13.01;100.00
65800;BME280;52544;48.116;11.660;2023-05-10T12:15:57;95296.56;;;13.08;100.00
65800;BME280;52544;48.116;11.660;2023-05-10T12:18:23;95301.38;;;13.05;100.00
65800;BME280;52544;48.116;11.660;2023-05-10T12:20:52;95296.38;;;12.84;100.00
65800;BME280;52544;48.116;11.660;2023-05-10T12:23:19;95301.97;;;12.98;100.00
65800;BME280;52544;48.116;11.660;2023-05-10T12:25:45;95299.47;;;12.97;100.00
65800;BME280;52544;48.116;11.660;2023-05-10T12:28:11;95301.97;;;12.63;100.00
65800;BME280;52544;48.116;11.660;2023-05-10T12:30:37;95305.53;;;12.71;100.00
65800;BME280;52544;48.116;11.660;2023-05-10T12:33:10;95298.06;;;12.57;100.00
65800;BME280;52544;48.116;11.660;2023-05-10T12:35:54;95301.41;;;12.59;100.00
65800;BME280;52544;48.116;11.660;2023-05-10T12:40:59;95307.72;;;12.58;100.00
65800;BME280;52544;48.116;11.660;2023-05-10T12:43:25;95310.59;;;12.83;100.00
65800;BME280;52544;48.116;11.660;2023-05-10T12:45:50;95306.13;;;12.65;100.00
65800;BME280;52544;48.116;11.660;2023-05-10T12:48:16;95310.66;;;12.55;100.00
65800;BME280;52544;48.116;11.660;2023-05-10T12:50:41;95316.22;;;12.62;100.00
65800;BME280;52544;48.116;11.660;2023-05-10T12:53:07;95314.09;;;12.65;100.00
65800;BME280;52544;48.116;11.660;2023-05-10T12:55:32;95317.22;;;12.79;100.00
65800;BME280;52544;48.116;11.660;2023-05-10T12:57:57;95306.00;;;12.85;100.00
65800;BME280;52544;48.116;11.660;2023-05-10T13:00:23;95308.94;;;12.82;100.00
65800;BME280;52544;48.116;11.660;2023-05-10T13:02:48;95316.47;;;13.04;100.00
65800;BME280;52544;48.116;11.660;2023-05-10T13:05:14;95311.06;;;12.78;100.00